sensor_id;sensor_type;location;lat;lon;timestamp;P1;durP1;ratioP1;P2;durP2;ratioP2
52494;SDS011;38405;53.212;5.660;2023-05-10T00:01:22;5.50;;;4.47;;
52494;SDS011;38405;53.212;5.660;2023-05-10T00:03:48;4.53;;;4.00;;
52494;SDS011;38405;53.212;5.660;2023-05-10T00:06:14;4.47;;;4.18;;
52494;SDS011;38405;53.212;5.660;2023-05-10T00:08:39;4.47;;;4.07;;
52494;SDS011;38405;53.212;5.660;2023-05-10T00:11:05;3.88;;;3.58;;
52494;SDS011;38405;53.212;5.660;2023-05-10T00:13:31;3.55;;;3.25;;
52494;SDS011;38405;53.212;5.660;2023-05-10T00:15:57;5.82;;;3.63;;
52494;SDS011;38405;53.212;5.660;2023-05-10T00:18:23;2.95;;;2.67;;
52494;SDS011;38405;53.212;5.660;2023-05-10T00:20:48;2.85;;;2.63;;
52494;SDS011;38405;53.212;5.660;2023-05-10T00:23:14;2.78;;;2.58;;
52494;SDS011;38405;53.212;5.660;2023-05-10T00:25:40;2.88;;;2.67;;
52494;SDS011;38405;53.212;5.660;2023-05-10T00:28:05;8.10;;;3.60;;
52494;SDS011;38405;53.212;5.660;2023-05-10T00:30:31;9.23;;;5.60;;
52494;SDS011;38405;53.212;5.660;2023-05-10T00:32:56;9.07;;;5.80;;
52494;SDS011;38405;53.212;5.660;2023-05-10T00:35:22;13.40;;;7.13;;
52494;SDS011;38405;53.212;5.660;2023-05-10T00:37:48;16.50;;;9.02;;
52494;SDS011;38405;53.212;5.660;2023-05-10T00:40:14;13.13;;;8.10;;
52494;SDS011;38405;53.212;5.660;2023-05-10T00:42:40;16.83;;;10.13;;
52494;SDS011;38405;53.212;5.660;2023-05-10T00:45:06;24.40;;;9.73;;
52494;SDS011;38405;53.212;5.660;2023-05-10T00:47:32;23.85;;;10.77;;
52494;SDS011;38405;53.212;5.660;2023-05-10T00:49:58;21.48;;;10.82;;
52494;SDS011;38405;53.212;5.660;2023-05-10T00:52:25;16.40;;;9.65;;
52494;SDS011;38405;53.212;5.660;2023-05-10T00:54:54;17.10;;;11.10;;
52494;SDS011;38405;53.212;5.660;2023-05-10T00:57:20;14.10;;;11.05;;
52494;SDS011;38405;53.212;5.660;2023-05-10T00:59:46;16.98;;;11.38;;
52494;SDS011;38405;53.212;5.660;2023-05-10T01:02:12;34.22;;;11.75;;
52494;SDS011;38405;53.212;5.660;2023-05-10T01:04:38;40.83;;;11.80;;
52494;SDS011;38405;53.212;5.660;2023-05-10T01:07:04;41.33;;;10.73;;
52494;SDS011;38405;53.212;5.660;2023-05-10T01:09:30;35.42;;;10.15;;
52494;SDS011;38405;53.212;5.660;2023-05-10T01:11:56;25.58;;;10.15;;
52494;SDS011;38405;53.212;5.660;2023-05-10T01:14:22;38.60;;;11.75;;
52494;SDS011;38405;53.212;5.660;2023-05-10T01:16:49;27.75;;;10.23;;
52494;SDS011;38405;53.212;5.660;2023-05-10T01:19:17;24.15;;;10.35;;
52494;SDS011;38405;53.212;5.660;2023-05-10T01:35:51;13.65;;;10.05;;
52494;SDS011;38405;53.212;5.660;2023-05-10T01:38:43;10.02;;;7.97;;
52494;SDS011;38405;53.212;5.660;2023-05-10T01:44:24;8.60;;;7.80;;
52494;SDS011;38405;53.212;5.660;2023-05-10T01:47:00;8.23;;;7.43;;
52494;SDS011;38405;53.212;5.660;2023-05-10T01:49:32;6.82;;;6.22;;
52494;SDS011;38405;53.212;5.660;2023-05-10T01:52:13;6.95;;;6.28;;
52494;SDS011;38405;53.212;5.660;2023-05-10T01:55:04;6.57;;;5.97;;
52494;SDS011;38405;53.212;5.660;2023-05-10T01:57:34;8.75;;;5.43;;
52494;SDS011;38405;53.212;5.660;2023-05-10T02:00:02;6.45;;;5.25;;
52494;SDS011;38405;53.212;5.660;2023-05-10T02:02:30;5.55;;;4.68;;
52494;SDS011;38405;53.212;5.660;2023-05-10T02:05:01;4.00;;;3.70;;
52494;SDS011;38405;53.212;5.660;2023-05-10T02:07:29;3.70;;;3.40;;
52494;SDS011;38405;53.212;5.660;2023-05-10T02:09:55;2.85;;;2.65;;
52494;SDS011;38405;53.212;5.660;2023-05-10T02:12:23;1.70;;;1.60;;
52494;SDS011;38405;53.212;5.660;2023-05-10T02:14:50;1.67;;;1.20;;
52494;SDS011;38405;53.212;5.660;2023-05-10T02:17:17;2.20;;;1.05;;
52494;SDS011;38405;53.212;5.660;2023-05-10T02:19:44;1.40;;;0.93;;
52494;SDS011;38405;53.212;5.660;2023-05-10T02:22:12;2.47;;;0.80;;
52494;SDS011;38405;53.212;5.660;2023-05-10T02:24:38;2.17;;;0.85;;
52494;SDS011;38405;53.212;5.660;2023-05-10T02:27:05;7.05;;;0.80;;
52494;SDS011;38405;53.212;5.660;2023-05-10T02:29:32;0.90;;;0.90;;
52494;SDS011;38405;53.212;5.660;2023-05-10T02:31:58;0.93;;;0.77;;
52494;SDS011;38405;53.212;5.660;2023-05-10T02:34:27;0.95;;;0.80;;
52494;SDS011;38405;53.212;5.660;2023-05-10T02:36:57;0.75;;;0.75;;
52494;SDS011;38405;53.212;5.660;2023-05-10T02:39:24;0.70;;;0.70;;
52494;SDS011;38405;53.212;5.660;2023-05-10T02:41:53;2.58;;;0.98;;
52494;SDS011;38405;53.212;5.660;2023-05-10T02:44:20;0.60;;;0.60;;
52494;SDS011;38405;53.212;5.660;2023-05-10T02:46:47;1.58;;;1.02;;
52494;SDS011;38405;53.212;5.660;2023-05-10T02:49:13;0.75;;;0.75;;
52494;SDS011;38405;53.212;5.660;2023-05-10T02:51:44;0.80;;;0.80;;
52494;SDS011;38405;53.212;5.660;2023-05-10T02:54:37;0.65;;;0.65;;
52494;SDS011;38405;53.212;5.660;2023-05-10T02:57:04;0.50;;;0.50;;
52494;SDS011;38405;53.212;5.660;2023-05-10T02:59:32;1.95;;;0.60;;
52494;SDS011;38405;53.212;5.660;2023-05-10T03:01:58;2.60;;;0.60;;
52494;SDS011;38405;53.212;5.660;2023-05-10T03:04:25;0.73;;;0.73;;
52494;SDS011;38405;53.212;5.660;2023-05-10T03:06:51;0.73;;;0.70;;
52494;SDS011;38405;53.212;5.660;2023-05-10T03:09:17;0.80;;;0.80;;
52494;SDS011;38405;53.212;5.660;2023-05-10T03:11:50;0.73;;;0.73;;
52494;SDS011;38405;53.212;5.660;2023-05-10T03:17:00;0.50;;;0.50;;
52494;SDS011;38405;53.212;5.660;2023-05-10T03:19:54;2.53;;;0.68;;
52494;SDS011;38405;53.212;5.660;2023-05-10T03:22:25;0.60;;;0.60;;
52494;SDS011;38405;53.212;5.660;2023-05-10T03:24:59;0.50;;;0.50;;
52494;SDS011;38405;53.212;5.660;2023-05-10T03:27:29;0.65;;;0.50;;
52494;SDS011;38405;53.212;5.660;2023-05-10T03:29:59;0.50;;;0.50;;
52494;SDS011;38405;53.212;5.660;2023-05-10T03:32:26;0.68;;;0.50;;
52494;SDS011;38405;53.212;5.660;2023-05-10T03:34:55;1.85;;;0.60;;
52494;SDS011;38405;53.212;5.660;2023-05-10T03:37:20;0.80;;;0.80;;
52494;SDS011;38405;53.212;5.660;2023-05-10T03:39:46;0.60;;;0.60;;
52494;SDS011;38405;53.212;5.660;2023-05-10T03:42:12;0.60;;;0.60;;
52494;SDS011;38405;53.212;5.660;2023-05-10T03:44:38;0.80;;;0.80;;
52494;SDS011;38405;53.212;5.660;2023-05-10T03:47:05;1.00;;;1.00;;
52494;SDS011;38405;53.212;5.660;2023-05-10T03:49:30;1.05;;;0.90;;
52494;SDS011;38405;53.212;5.660;2023-05-10T03:51:56;1.00;;;1.00;;
52494;SDS011;38405;53.212;5.660;2023-05-10T03:54:21;1.00;;;1.00;;
52494;SDS011;38405;53.212;5.660;2023-05-10T03:56:47;4.03;;;0.90;;
52494;SDS011;38405;53.212;5.660;2023-05-10T03:59:13;1.13;;;0.90;;
52494;SDS011;38405;53.212;5.660;2023-05-10T04:01:38;3.35;;;0.98;;
52494;SDS011;38405;53.212;5.660;2023-05-10T04:04:04;2.30;;;1.00;;
52494;SDS011;38405;53.212;5.660;2023-05-10T04:06:30;1.00;;;1.00;;
52494;SDS011;38405;53.212;5.660;2023-05-10T04:08:55;2.17;;;1.00;;
52494;SDS011;38405;53.212;5.660;2023-05-10T04:11:24;1.00;;;1.00;;
52494;SDS011;38405;53.212;5.660;2023-05-10T04:13:50;1.35;;;1.25;;
52494;SDS011;38405;53.212;5.660;2023-05-10T04:16:16;8.55;;;1.70;;
52494;SDS011;38405;53.212;5.660;2023-05-10T04:18:41;2.10;;;1.92;;
52494;SDS011;38405;53.212;5.660;2023-05-10T04:21:11;2.08;;;1.92;;
52494;SDS011;38405;53.212;5.660;2023-05-10T04:23:37;2.47;;;2.28;;
52494;SDS011;38405;53.212;5.660;2023-05-10T04:26:03;2.10;;;2.00;;
52494;SDS011;38405;53.212;5.660;2023-05-10T04:28:29;2.30;;;1.98;;
52494;SDS011;38405;53.212;5.660;2023-05-10T04:31:01;2.55;;;2.35;;
52494;SDS011;38405;53.212;5.660;2023-05-10T04:33:31;2.85;;;1.98;;
52494;SDS011;38405;53.212;5.660;2023-05-10T04:35:57;2.35;;;2.13;;
52494;SDS011;38405;53.212;5.660;2023-05-10T04:38:23;2.28;;;2.10;;
52494;SDS011;38405;53.212;5.660;2023-05-10T04:40:49;6.60;;;2.30;;
52494;SDS011;38405;53.212;5.660;2023-05-10T04:43:15;2.25;;;2.10;;
52494;SDS011;38405;53.212;5.660;2023-05-10T04:45:41;4.85;;;2.45;;
52494;SDS011;38405;53.212;5.660;2023-05-10T04:48:06;3.22;;;2.15;;
52494;SDS011;38405;53.212;5.660;2023-05-10T04:50:32;4.43;;;2.40;;
52494;SDS011;38405;53.212;5.660;2023-05-10T04:52:58;2.35;;;2.15;;
52494;SDS011;38405;53.212;5.660;2023-05-10T04:55:24;2.45;;;2.25;;
52494;SDS011;38405;53.212;5.660;2023-05-10T04:57:50;3.03;;;2.53;;
52494;SDS011;38405;53.212;5.660;2023-05-10T05:00:15;4.85;;;2.60;;
52494;SDS011;38405;53.212;5.660;2023-05-10T05:02:45;3.63;;;2.67;;
52494;SDS011;38405;53.212;5.660;2023-05-10T05:05:11;2.45;;;2.08;;
52494;SDS011;38405;53.212;5.660;2023-05-10T05:07:37;2.60;;;2.40;;
52494;SDS011;38405;53.212;5.660;2023-05-10T05:10:06;3.40;;;1.92;;
52494;SDS011;38405;53.212;5.660;2023-05-10T05:12:33;2.58;;;1.80;;
52494;SDS011;38405;53.212;5.660;2023-05-10T05:14:59;2.15;;;1.58;;
52494;SDS011;38405;53.212;5.660;2023-05-10T05:17:25;1.67;;;1.50;;
52494;SDS011;38405;53.212;5.660;2023-05-10T05:19:51;2.53;;;1.83;;
52494;SDS011;38405;53.212;5.660;2023-05-10T05:22:17;3.72;;;1.85;;
52494;SDS011;38405;53.212;5.660;2023-05-10T05:24:44;2.08;;;1.60;;
52494;SDS011;38405;53.212;5.660;2023-05-10T05:27:10;2.45;;;2.10;;
52494;SDS011;38405;53.212;5.660;2023-05-10T05:29:35;3.05;;;1.98;;
52494;SDS011;38405;53.212;5.660;2023-05-10T05:32:01;2.22;;;2.03;;
52494;SDS011;38405;53.212;5.660;2023-05-10T05:34:27;2.40;;;2.20;;
52494;SDS011;38405;53.212;5.660;2023-05-10T05:36:52;3.35;;;2.50;;
52494;SDS011;38405;53.212;5.660;2023-05-10T05:39:18;2.15;;;1.95;;
52494;SDS011;38405;53.212;5.660;2023-05-10T05:41:44;1.88;;;1.77;;
52494;SDS011;38405;53.212;5.660;2023-05-10T05:44:12;2.65;;;2.08;;
52494;SDS011;38405;53.212;5.660;2023-05-10T05:46:38;3.03;;;2.20;;
52494;SDS011;38405;53.212;5.660;2023-05-10T05:49:04;2.53;;;2.30;;
52494;SDS011;38405;53.212;5.660;2023-05-10T05:51:30;2.28;;;2.13;;
52494;SDS011;38405;53.212;5.660;2023-05-10T05:53:56;3.65;;;2.20;;
52494;SDS011;38405;53.212;5.660;2023-05-10T05:56:21;2.55;;;2.35;;
52494;SDS011;38405;53.212;5.660;2023-05-10T05:58:52;2.60;;;2.40;;
52494;SDS011;38405;53.212;5.660;2023-05-10T06:01:18;3.65;;;3.05;;
52494;SDS011;38405;53.212;5.660;2023-05-10T06:03:43;3.70;;;3.40;;
52494;SDS011;38405;53.212;5.660;2023-05-10T06:06:09;3.80;;;3.47;;
52494;SDS011;38405;53.212;5.660;2023-05-10T06:08:35;4.00;;;3.60;;
52494;SDS011;38405;53.212;5.660;2023-05-10T06:11:00;4.40;;;3.42;;
52494;SDS011;38405;53.212;5.660;2023-05-10T06:13:26;3.05;;;2.75;;
52494;SDS011;38405;53.212;5.660;2023-05-10T06:15:57;3.08;;;2.80;;
52494;SDS011;38405;53.212;5.660;2023-05-10T06:18:23;4.40;;;3.20;;
52494;SDS011;38405;53.212;5.660;2023-05-10T06:20:49;4.95;;;3.33;;
52494;SDS011;38405;53.212;5.660;2023-05-10T06:23:15;4.50;;;3.20;;
52494;SDS011;38405;53.212;5.660;2023-05-10T06:25:40;4.82;;;3.22;;
52494;SDS011;38405;53.212;5.660;2023-05-10T06:28:06;4.80;;;3.15;;
52494;SDS011;38405;53.212;5.660;2023-05-10T06:30:32;4.53;;;3.58;;
52494;SDS011;38405;53.212;5.660;2023-05-10T06:33:00;5.68;;;4.00;;
52494;SDS011;38405;53.212;5.660;2023-05-10T06:35:26;6.65;;;3.40;;
52494;SDS011;38405;53.212;5.660;2023-05-10T06:37:51;9.98;;;3.22;;
52494;SDS011;38405;53.212;5.660;2023-05-10T06:40:17;7.60;;;2.90;;
52494;SDS011;38405;53.212;5.660;2023-05-10T06:42:43;4.82;;;3.05;;
52494;SDS011;38405;53.212;5.660;2023-05-10T06:45:10;3.20;;;2.65;;
52494;SDS011;38405;53.212;5.660;2023-05-10T06:47:36;5.25;;;2.58;;
52494;SDS011;38405;53.212;5.660;2023-05-10T06:50:01;2.97;;;2.50;;
52494;SDS011;38405;53.212;5.660;2023-05-10T06:52:28;5.93;;;2.88;;
52494;SDS011;38405;53.212;5.660;2023-05-10T06:54:53;4.13;;;2.47;;
52494;SDS011;38405;53.212;5.660;2023-05-10T06:57:19;2.95;;;2.50;;
52494;SDS011;38405;53.212;5.660;2023-05-10T06:59:45;4.43;;;2.47;;
52494;SDS011;38405;53.212;5.660;2023-05-10T07:02:11;9.85;;;2.40;;
52494;SDS011;38405;53.212;5.660;2023-05-10T07:04:37;2.72;;;2.38;;
52494;SDS011;38405;53.212;5.660;2023-05-10T07:07:02;2.45;;;2.25;;
52494;SDS011;38405;53.212;5.660;2023-05-10T07:09:28;3.17;;;2.88;;
52494;SDS011;38405;53.212;5.660;2023-05-10T07:11:54;3.28;;;2.97;;
52494;SDS011;38405;53.212;5.660;2023-05-10T07:14:22;4.57;;;3.28;;
52494;SDS011;38405;53.212;5.660;2023-05-10T07:16:48;4.63;;;3.45;;
52494;SDS011;38405;53.212;5.660;2023-05-10T07:19:14;4.07;;;3.70;;
52494;SDS011;38405;53.212;5.660;2023-05-10T07:21:39;3.90;;;3.50;;
52494;SDS011;38405;53.212;5.660;2023-05-10T07:24:07;4.97;;;3.95;;
52494;SDS011;38405;53.212;5.660;2023-05-10T07:26:33;4.18;;;3.78;;
52494;SDS011;38405;53.212;5.660;2023-05-10T07:28:58;4.35;;;3.95;;
52494;SDS011;38405;53.212;5.660;2023-05-10T07:31:24;4.45;;;3.83;;
52494;SDS011;38405;53.212;5.660;2023-05-10T07:33:49;4.78;;;4.05;;
52494;SDS011;38405;53.212;5.660;2023-05-10T07:36:15;4.10;;;3.70;;
52494;SDS011;38405;53.212;5.660;2023-05-10T07:38:41;4.40;;;3.42;;
52494;SDS011;38405;53.212;5.660;2023-05-10T07:41:06;3.90;;;3.30;;
52494;SDS011;38405;53.212;5.660;2023-05-10T07:43:32;3.85;;;3.42;;
52494;SDS011;38405;53.212;5.660;2023-05-10T07:46:01;4.32;;;3.30;;
52494;SDS011;38405;53.212;5.660;2023-05-10T07:48:26;3.38;;;3.08;;
52494;SDS011;38405;53.212;5.660;2023-05-10T07:50:52;3.35;;;2.80;;
52494;SDS011;38405;53.212;5.660;2023-05-10T07:53:17;3.50;;;3.17;;
52494;SDS011;38405;53.212;5.660;2023-05-10T07:55:43;3.63;;;2.80;;
52494;SDS011;38405;53.212;5.660;2023-05-10T07:58:10;3.28;;;2.97;;
52494;SDS011;38405;53.212;5.660;2023-05-10T08:00:35;3.15;;;2.80;;
52494;SDS011;38405;53.212;5.660;2023-05-10T08:03:04;3.53;;;3.10;;
52494;SDS011;38405;53.212;5.660;2023-05-10T08:05:29;3.55;;;3.25;;
52494;SDS011;38405;53.212;5.660;2023-05-10T08:07:56;3.80;;;3.03;;
52494;SDS011;38405;53.212;5.660;2023-05-10T08:10:21;3.28;;;2.97;;
52494;SDS011;38405;53.212;5.660;2023-05-10T08:12:47;4.10;;;3.45;;
52494;SDS011;38405;53.212;5.660;2023-05-10T08:15:12;5.88;;;4.45;;
52494;SDS011;38405;53.212;5.660;2023-05-10T08:17:38;4.20;;;3.80;;
52494;SDS011;38405;53.212;5.660;2023-05-10T08:20:04;4.60;;;4.20;;
52494;SDS011;38405;53.212;5.660;2023-05-10T08:22:30;5.10;;;4.57;;
52494;SDS011;38405;53.212;5.660;2023-05-10T08:24:56;5.38;;;4.88;;
52494;SDS011;38405;53.212;5.660;2023-05-10T08:27:21;7.47;;;5.40;;
52494;SDS011;38405;53.212;5.660;2023-05-10T08:29:47;5.63;;;5.13;;
52494;SDS011;38405;53.212;5.660;2023-05-10T08:32:13;6.07;;;5.53;;
52494;SDS011;38405;53.212;5.660;2023-05-10T08:34:38;5.88;;;5.35;;
52494;SDS011;38405;53.212;5.660;2023-05-10T08:37:04;6.15;;;5.38;;
52494;SDS011;38405;53.212;5.660;2023-05-10T08:39:33;6.18;;;5.57;;
52494;SDS011;38405;53.212;5.660;2023-05-10T08:42:00;5.18;;;4.57;;
52494;SDS011;38405;53.212;5.660;2023-05-10T08:44:28;6.03;;;4.95;;
52494;SDS011;38405;53.212;5.660;2023-05-10T08:46:55;5.63;;;5.10;;
52494;SDS011;38405;53.212;5.660;2023-05-10T08:49:22;6.13;;;4.80;;
52494;SDS011;38405;53.212;5.660;2023-05-10T08:51:50;6.25;;;5.18;;
52494;SDS011;38405;53.212;5.660;2023-05-10T08:54:20;5.07;;;4.57;;
52494;SDS011;38405;53.212;5.660;2023-05-10T08:56:46;5.53;;;4.82;;
52494;SDS011;38405;53.212;5.660;2023-05-10T08:59:12;6.93;;;5.03;;
52494;SDS011;38405;53.212;5.660;2023-05-10T09:01:39;6.70;;;4.63;;
52494;SDS011;38405;53.212;5.660;2023-05-10T09:04:07;5.75;;;4.70;;
52494;SDS011;38405;53.212;5.660;2023-05-10T09:06:32;7.65;;;4.70;;
52494;SDS011;38405;53.212;5.660;2023-05-10T09:08:59;7.35;;;5.05;;
52494;SDS011;38405;53.212;5.660;2023-05-10T09:11:25;5.35;;;4.85;;
52494;SDS011;38405;53.212;5.660;2023-05-10T09:13:53;6.65;;;5.07;;
52494;SDS011;38405;53.212;5.660;2023-05-10T09:16:20;7.10;;;5.43;;
52494;SDS011;38405;53.212;5.660;2023-05-10T09:18:46;5.35;;;4.82;;
52494;SDS011;38405;53.212;5.660;2023-05-10T09:21:12;6.60;;;5.18;;
52494;SDS011;38405;53.212;5.660;2023-05-10T09:23:42;5.38;;;4.80;;
52494;SDS011;38405;53.212;5.660;2023-05-10T09:26:08;6.18;;;4.75;;
52494;SDS011;38405;53.212;5.660;2023-05-10T09:28:34;5.90;;;4.72;;
52494;SDS011;38405;53.212;5.660;2023-05-10T09:31:17;6.45;;;5.30;;
52494;SDS011;38405;53.212;5.660;2023-05-10T09:33:43;5.40;;;4.82;;
52494;SDS011;38405;53.212;5.660;2023-05-10T09:36:10;5.90;;;5.30;;
52494;SDS011;38405;53.212;5.660;2023-05-10T09:38:46;6.05;;;5.10;;
52494;SDS011;38405;53.212;5.660;2023-05-10T09:41:23;5.95;;;5.35;;
52494;SDS011;38405;53.212;5.660;2023-05-10T09:46:20;8.05;;;6.00;;
52494;SDS011;38405;53.212;5.660;2023-05-10T09:48:46;7.38;;;6.03;;
52494;SDS011;38405;53.212;5.660;2023-05-10T09:51:19;6.53;;;5.82;;
52494;SDS011;38405;53.212;5.660;2023-05-10T09:53:45;7.38;;;6.10;;
52494;SDS011;38405;53.212;5.660;2023-05-10T09:56:11;7.70;;;6.90;;
52494;SDS011;38405;53.212;5.660;2023-05-10T09:58:37;7.10;;;5.95;;
52494;SDS011;38405;53.212;5.660;2023-05-10T10:01:03;7.55;;;6.32;;
52494;SDS011;38405;53.212;5.660;2023-05-10T10:03:29;7.05;;;5.30;;
52494;SDS011;38405;53.212;5.660;2023-05-10T10:05:55;7.70;;;6.40;;
52494;SDS011;38405;53.212;5.660;2023-05-10T10:08:21;9.75;;;6.80;;
52494;SDS011;38405;53.212;5.660;2023-05-10T10:10:47;8.07;;;7.20;;
52494;SDS011;38405;53.212;5.660;2023-05-10T10:13:13;8.40;;;6.78;;
52494;SDS011;38405;53.212;5.660;2023-05-10T10:15:40;10.25;;;7.25;;
52494;SDS011;38405;53.212;5.660;2023-05-10T10:18:07;7.80;;;6.95;;
52494;SDS011;38405;53.212;5.660;2023-05-10T10:20:37;7.57;;;6.80;;
52494;SDS011;38405;53.212;5.660;2023-05-10T10:23:02;8.02;;;7.05;;
52494;SDS011;38405;53.212;5.660;2023-05-10T10:25:28;6.75;;;6.00;;
52494;SDS011;38405;53.212;5.660;2023-05-10T10:30:39;6.85;;;5.90;;
52494;SDS011;38405;53.212;5.660;2023-05-10T10:35:58;5.47;;;4.95;;
52494;SDS011;38405;53.212;5.660;2023-05-10T10:38:25;6.32;;;4.70;;
52494;SDS011;38405;53.212;5.660;2023-05-10T10:41:10;5.38;;;4.88;;
52494;SDS011;38405;53.212;5.660;2023-05-10T10:44:22;5.75;;;5.15;;
52494;SDS011;38405;53.212;5.660;2023-05-10T10:47:10;6.78;;;5.32;;
52494;SDS011;38405;53.212;5.660;2023-05-10T10:50:06;5.93;;;5.32;;
52494;SDS011;38405;53.212;5.660;2023-05-10T10:52:36;6.40;;;5.80;;
52494;SDS011;38405;53.212;5.660;2023-05-10T10:57:33;5.65;;;4.20;;
52494;SDS011;38405;53.212;5.660;2023-05-10T11:03:05;4.85;;;4.45;;
52494;SDS011;38405;53.212;5.660;2023-05-10T11:10:35;5.13;;;4.70;;
52494;SDS011;38405;53.212;5.660;2023-05-10T11:13:08;5.70;;;5.20;;
52494;SDS011;38405;53.212;5.660;2023-05-10T11:18:21;6.72;;;6.10;;
52494;SDS011;38405;53.212;5.660;2023-05-10T11:20:59;7.22;;;6.53;;
52494;SDS011;38405;53.212;5.660;2023-05-10T11:23:31;7.78;;;6.97;;
52494;SDS011;38405;53.212;5.660;2023-05-10T11:26:12;8.55;;;7.68;;
52494;SDS011;38405;53.212;5.660;2023-05-10T11:28:45;9.07;;;8.18;;
52494;SDS011;38405;53.212;5.660;2023-05-10T11:31:19;8.68;;;7.88;;
52494;SDS011;38405;53.212;5.660;2023-05-10T11:33:45;9.30;;;8.30;;
52494;SDS011;38405;53.212;5.660;2023-05-10T11:36:14;9.55;;;8.60;;
52494;SDS011;38405;53.212;5.660;2023-05-10T11:38:41;10.13;;;8.80;;
52494;SDS011;38405;53.212;5.660;2023-05-10T11:41:10;10.70;;;9.60;;
52494;SDS011;38405;53.212;5.660;2023-05-10T11:43:38;11.85;;;10.27;;
52494;SDS011;38405;53.212;5.660;2023-05-10T11:46:07;9.65;;;8.65;;
52494;SDS011;38405;53.212;5.660;2023-05-10T11:48:35;11.38;;;9.80;;
52494;SDS011;38405;53.212;5.660;2023-05-10T11:51:01;11.15;;;10.00;;
52494;SDS011;38405;53.212;5.660;2023-05-10T11:53:29;10.05;;;7.43;;
52494;SDS011;38405;53.212;5.660;2023-05-10T11:56:02;10.85;;;8.02;;
52494;SDS011;38405;53.212;5.660;2023-05-10T11:58:32;9.13;;;8.05;;
52494;SDS011;38405;53.212;5.660;2023-05-10T12:00:59;9.98;;;8.13;;
52494;SDS011;38405;53.212;5.660;2023-05-10T12:03:26;9.25;;;8.20;;
52494;SDS011;38405;53.212;5.660;2023-05-10T12:05:53;7.95;;;7.20;;
52494;SDS011;38405;53.212;5.660;2023-05-10T12:08:23;7.32;;;6.63;;
52494;SDS011;38405;53.212;5.660;2023-05-10T12:10:53;7.40;;;6.68;;
52494;SDS011;38405;53.212;5.660;2023-05-10T12:13:31;6.70;;;6.10;;
52494;SDS011;38405;53.212;5.660;2023-05-10T12:15:57;6.30;;;5.43;;
52494;SDS011;38405;53.212;5.660;2023-05-10T12:18:23;7.50;;;6.05;;
52494;SDS011;38405;53.212;5.660;2023-05-10T12:20:53;7.85;;;7.05;;
52494;SDS011;38405;53.212;5.660;2023-05-10T12:23:19;7.40;;;6.70;;
52494;SDS011;38405;53.212;5.660;2023-05-10T12:25:45;8.60;;;7.70;;
52494;SDS011;38405;53.212;5.660;2023-05-10T12:28:11;11.13;;;8.55;;
52494;SDS011;38405;53.212;5.660;2023-05-10T12:30:37;11.20;;;8.88;;
52494;SDS011;38405;53.212;5.660;2023-05-10T12:33:14;9.48;;;8.50;;
52494;SDS011;38405;53.212;5.660;2023-05-10T12:35:52;11.55;;;9.65;;
52494;SDS011;38405;53.212;5.660;2023-05-10T12:38:29;10.63;;;9.52;;
52494;SDS011;38405;53.212;5.660;2023-05-10T12:40:58;11.40;;;9.32;;
52494;SDS011;38405;53.212;5.660;2023-05-10T12:43:25;10.55;;;9.45;;
52494;SDS011;38405;53.212;5.660;2023-05-10T12:45:50;15.68;;;10.63;;
52494;SDS011;38405;53.212;5.660;2023-05-10T12:48:16;12.30;;;10.60;;
52494;SDS011;38405;53.212;5.660;2023-05-10T12:50:42;10.35;;;9.07;;
52494;SDS011;38405;53.212;5.660;2023-05-10T12:53:07;11.93;;;10.23;;
52494;SDS011;38405;53.212;5.660;2023-05-10T12:55:33;14.02;;;11.40;;
52494;SDS011;38405;53.212;5.660;2023-05-10T12:57:59;13.77;;;10.18;;
52494;SDS011;38405;53.212;5.660;2023-05-10T13:00:25;10.93;;;9.57;;
52494;SDS011;38405;53.212;5.660;2023-05-10T13:02:51;11.48;;;10.27;;
52494;SDS011;38405;53.212;5.660;2023-05-10T13:05:17;10.60;;;8.93;;
52494;SDS011;38405;53.212;5.660;2023-05-10T13:07:42;8.90;;;8.00;;
52494;SDS011;38405;53.212;5.660;2023-05-10T13:10:09;9.20;;;8.13;;
52494;SDS011;38405;53.212;5.660;2023-05-10T13:12:35;9.98;;;8.45;;
52494;SDS011;38405;53.212;5.660;2023-05-10T13:15:01;8.98;;;8.07;;
52494;SDS011;38405;53.212;5.660;2023-05-10T13:17:28;9.07;;;7.07;;
52494;SDS011;38405;53.212;5.660;2023-05-10T13:19:54;6.80;;;6.10;;
52494;SDS011;38405;53.212;5.660;2023-05-10T13:22:20;6.75;;;6.15;;
52494;SDS011;38405;53.212;5.660;2023-05-10T13:24:45;5.70;;;4.80;;
52494;SDS011;38405;53.212;5.660;2023-05-10T13:27:11;5.47;;;5.00;;
52494;SDS011;38405;53.212;5.660;2023-05-10T13:29:36;5.03;;;4.63;;
52494;SDS011;38405;53.212;5.660;2023-05-10T13:32:02;5.15;;;4.75;;
52494;SDS011;38405;53.212;5.660;2023-05-10T13:34:28;5.38;;;4.90;;
52494;SDS011;38405;53.212;5.660;2023-05-10T13:36:53;4.57;;;4.20;;
52494;SDS011;38405;53.212;5.660;2023-05-10T13:39:21;5.03;;;4.63;;
52494;SDS011;38405;53.212;5.660;2023-05-10T13:41:46;5.15;;;4.75;;
52494;SDS011;38405;53.212;5.660;2023-05-10T13:44:12;4.95;;;4.55;;
52494;SDS011;38405;53.212;5.660;2023-05-10T13:46:39;5.07;;;4.68;;
52494;SDS011;38405;53.212;5.660;2023-05-10T13:49:05;5.15;;;4.75;;
52494;SDS011;38405;53.212;5.660;2023-05-10T13:51:31;4.70;;;4.30;;
52494;SDS011;38405;53.212;5.660;2023-05-10T13:53:58;4.85;;;4.45;;
52494;SDS011;38405;53.212;5.660;2023-05-10T13:56:24;4.55;;;4.10;;
52494;SDS011;38405;53.212;5.660;2023-05-10T13:58:50;7.47;;;4.18;;
52494;SDS011;38405;53.212;5.660;2023-05-10T14:01:16;3.97;;;3.63;;
52494;SDS011;38405;53.212;5.660;2023-05-10T14:03:42;3.92;;;3.63;;
52494;SDS011;38405;53.212;5.660;2023-05-10T14:06:07;4.32;;;3.80;;
52494;SDS011;38405;53.212;5.660;2023-05-10T14:08:33;4.32;;;4.03;;
52494;SDS011;38405;53.212;5.660;2023-05-10T14:11:00;4.88;;;4.13;;
52494;SDS011;38405;53.212;5.660;2023-05-10T14:13:26;4.05;;;3.75;;
52494;SDS011;38405;53.212;5.660;2023-05-10T14:15:53;4.72;;;4.32;;
52494;SDS011;38405;53.212;5.660;2023-05-10T14:18:19;4.68;;;4.32;;
52494;SDS011;38405;53.212;5.660;2023-05-10T14:20:44;4.30;;;4.00;;
52494;SDS011;38405;53.212;5.660;2023-05-10T14:23:10;4.78;;;4.38;;
52494;SDS011;38405;53.212;5.660;2023-05-10T14:25:36;4.68;;;4.03;;
52494;SDS011;38405;53.212;5.660;2023-05-10T14:28:03;4.72;;;4.32;;
52494;SDS011;38405;53.212;5.660;2023-05-10T14:30:28;4.72;;;4.43;;
52494;SDS011;38405;53.212;5.660;2023-05-10T14:32:55;6.68;;;4.80;;
52494;SDS011;38405;53.212;5.660;2023-05-10T14:35:23;5.00;;;4.45;;
52494;SDS011;38405;53.212;5.660;2023-05-10T14:37:48;6.10;;;5.60;;
52494;SDS011;38405;53.212;5.660;2023-05-10T14:40:14;5.38;;;4.88;;
52494;SDS011;38405;53.212;5.660;2023-05-10T14:42:41;5.50;;;5.07;;
52494;SDS011;38405;53.212;5.660;2023-05-10T14:45:07;6.10;;;5.50;;
52494;SDS011;38405;53.212;5.660;2023-05-10T14:47:33;5.68;;;5.18;;
52494;SDS011;38405;53.212;5.660;2023-05-10T14:49:59;6.30;;;5.57;;
52494;SDS011;38405;53.212;5.660;2023-05-10T14:52:25;6.43;;;5.85;;
52494;SDS011;38405;53.212;5.660;2023-05-10T14:54:50;5.72;;;5.22;;
52494;SDS011;38405;53.212;5.660;2023-05-10T14:57:16;6.30;;;5.70;;
52494;SDS011;38405;53.212;5.660;2023-05-10T14:59:42;6.22;;;5.20;;
52494;SDS011;38405;53.212;5.660;2023-05-10T15:02:07;6.45;;;5.85;;
52494;SDS011;38405;53.212;5.660;2023-05-10T15:04:34;7.47;;;6.35;;
52494;SDS011;38405;53.212;5.660;2023-05-10T15:07:00;6.65;;;5.90;;
52494;SDS011;38405;53.212;5.660;2023-05-10T15:09:25;6.65;;;6.05;;
52494;SDS011;38405;53.212;5.660;2023-05-10T15:11:52;6.55;;;5.85;;
52494;SDS011;38405;53.212;5.660;2023-05-10T15:14:18;7.38;;;6.68;;
52494;SDS011;38405;53.212;5.660;2023-05-10T15:16:44;7.78;;;6.70;;
52494;SDS011;38405;53.212;5.660;2023-05-10T15:19:09;7.18;;;6.47;;
52494;SDS011;38405;53.212;5.660;2023-05-10T15:21:35;7.25;;;6.57;;
52494;SDS011;38405;53.212;5.660;2023-05-10T15:24:04;7.13;;;6.43;;
52494;SDS011;38405;53.212;5.660;2023-05-10T15:26:30;7.47;;;6.85;;
52494;SDS011;38405;53.212;5.660;2023-05-10T15:28:57;7.93;;;7.22;;